createdAt,value
2016-11-03T00:00:43.139Z,0
2016-11-03T00:01:43.136Z,0
2016-11-03T00:02:43.168Z,0
2016-11-03T00:03:42.874Z,0
2016-11-03T00:04:42.562Z,0
2016-11-03T00:05:42.892Z,0
2016-11-03T00:06:43.209Z,0
2016-11-03T00:07:42.955Z,0
2016-11-03T00:08:43.311Z,0
2016-11-03T00:09:43.059Z,0
2016-11-03T00:10:42.995Z,0
2016-11-03T00:11:43.293Z,0
2016-11-03T00:12:42.981Z,0
2016-11-03T00:13:43.016Z,0
2016-11-03T00:14:42.704Z,0
2016-11-03T00:15:43.334Z,0
2016-11-03T00:16:42.769Z,0
2016-11-03T00:17:43.077Z,0
2016-11-03T00:18:43.381Z,0
2016-11-03T00:19:43.449Z,0
2016-11-03T00:20:43.166Z,0
2016-11-03T00:21:43.126Z,0
2016-11-03T00:22:43.196Z,0
2016-11-03T00:23:43.151Z,0
2016-11-03T00:24:42.852Z,0
2016-11-03T00:25:42.868Z,0
2016-11-03T00:26:43.542Z,0
2016-11-03T00:27:43.540Z,0
2016-11-03T00:28:43.224Z,0
2016-11-03T00:29:43.240Z,0
2016-11-03T00:30:42.950Z,0
2016-11-03T00:31:42.966Z,0
2016-11-03T00:32:43.290Z,0
2016-11-03T00:33:43.291Z,0
2016-11-03T00:34:43.013Z,0
2016-11-03T00:35:43.426Z,0
2016-11-03T00:36:43.662Z,0
2016-11-03T00:37:42.785Z,0
2016-11-03T00:38:43.058Z,0
2016-11-03T00:39:43.088Z,0
2016-11-03T00:40:43.108Z,0
2016-11-03T00:41:43.463Z,0
2016-11-03T00:42:43.122Z,0
2016-11-03T00:43:43.735Z,0
2016-11-03T00:44:43.197Z,0
2016-11-03T00:45:43.476Z,0
2016-11-03T00:46:43.489Z,0
2016-11-03T00:47:43.498Z,0
2016-11-03T00:48:42.897Z,0
2016-11-03T00:49:43.247Z,0
2016-11-03T00:50:43.916Z,0
2016-11-03T00:51:43.546Z,0
2016-11-03T00:52:43.985Z,0
2016-11-03T00:53:43.277Z,0
2016-11-03T00:54:43.657Z,0
2016-11-03T00:55:43.609Z,0
2016-11-03T00:56:43.319Z,0
2016-11-03T00:57:43.650Z,0
2016-11-03T00:58:43.699Z,0
2016-11-03T00:59:43.985Z,0
2016-11-03T01:00:43.370Z,0
2016-11-03T01:01:44.016Z,0
2016-11-03T01:02:43.774Z,0
2016-11-03T01:03:43.726Z,0
2016-11-03T01:04:43.867Z,0
2016-11-03T01:05:44.081Z,0
2016-11-03T01:06:43.779Z,0
2016-11-03T01:07:43.785Z,0
2016-11-03T01:08:43.797Z,0
2016-11-03T01:09:44.137Z,0
2016-11-03T01:10:43.820Z,0
2016-11-03T01:11:43.551Z,0
2016-11-03T01:12:43.859Z,0
2016-11-03T01:13:44.238Z,0
2016-11-03T01:14:43.895Z,0
2016-11-03T01:15:43.608Z,0
2016-11-03T01:16:43.606Z,0
2016-11-03T01:17:44.033Z,0
2016-11-03T01:18:44.318Z,0
2016-11-03T01:19:43.969Z,0
2016-11-03T01:20:43.358Z,0
2016-11-03T01:21:44.339Z,0
2016-11-03T01:22:44.019Z,0
2016-11-03T01:23:44.166Z,0
2016-11-03T01:24:44.352Z,0
2016-11-03T01:25:44.064Z,0
2016-11-03T01:26:43.777Z,0
2016-11-03T01:27:44.077Z,0
2016-11-03T01:28:44.443Z,0
2016-11-03T01:29:44.248Z,0
2016-11-03T01:30:44.217Z,0
2016-11-03T01:31:44.135Z,0
2016-11-03T01:32:43.835Z,0
2016-11-03T01:33:44.477Z,0
2016-11-03T01:34:43.877Z,0
2016-11-03T01:35:44.646Z,0
2016-11-03T01:36:44.512Z,0
2016-11-03T01:37:43.965Z,0
2016-11-03T01:38:44.227Z,0
2016-11-03T01:39:44.309Z,0
2016-11-03T01:40:43.797Z,0
2016-11-03T01:41:44.605Z,0
2016-11-03T01:42:44.326Z,0
2016-11-03T01:43:44.357Z,0
2016-11-03T01:44:44.635Z,0
2016-11-03T01:45:44.087Z,0
2016-11-03T01:46:44.363Z,0
2016-11-03T01:47:44.477Z,0
2016-11-03T01:48:44.395Z,0
2016-11-03T01:49:44.087Z,0
2016-11-03T01:50:44.829Z,0
2016-11-03T01:51:44.475Z,0
2016-11-03T01:52:44.499Z,0
2016-11-03T01:53:44.808Z,0
2016-11-03T01:54:44.461Z,0
2016-11-03T01:55:44.523Z,0
2016-11-03T01:56:44.529Z,0
2016-11-03T01:57:44.616Z,0
2016-11-03T01:58:44.850Z,0
2016-11-03T01:59:44.834Z,0
2016-11-03T02:00:44.869Z,0
2016-11-03T02:01:44.922Z,0
2016-11-03T02:02:44.271Z,0
2016-11-03T02:03:44.285Z,0
2016-11-03T02:04:44.629Z,0
2016-11-03T02:05:44.637Z,0
2016-11-03T02:06:44.655Z,0
2016-11-03T02:07:44.388Z,0
2016-11-03T02:08:44.448Z,0
2016-11-03T02:09:44.712Z,0
2016-11-03T02:10:44.743Z,0
2016-11-03T02:11:44.399Z,0
2016-11-03T02:12:45.077Z,0
2016-11-03T02:13:44.747Z,0
2016-11-03T02:14:44.545Z,0
2016-11-03T02:15:44.479Z,0
2016-11-03T02:16:44.473Z,0
2016-11-03T02:17:44.816Z,0
2016-11-03T02:18:45.256Z,0
2016-11-03T02:19:44.842Z,0
2016-11-03T02:20:45.151Z,0
2016-11-03T02:21:44.858Z,0
2016-11-03T02:22:44.898Z,0
2016-11-03T02:23:45.217Z,0
2016-11-03T02:24:44.916Z,0
2016-11-03T02:25:44.954Z,0
2016-11-03T02:26:44.666Z,0
2016-11-03T02:27:44.973Z,0
2016-11-03T02:28:44.967Z,0
2016-11-03T02:29:45.015Z,0
2016-11-03T02:30:45.308Z,0
2016-11-03T02:31:45.303Z,0
2016-11-03T02:32:45.329Z,0
2016-11-03T02:33:45.160Z,0
2016-11-03T02:34:45.449Z,0
2016-11-03T02:35:45.157Z,0
2016-11-03T02:36:45.500Z,0
2016-11-03T02:37:44.793Z,0
2016-11-03T02:38:45.463Z,0
2016-11-03T02:39:44.551Z,0
2016-11-03T02:40:45.124Z,0
2016-11-03T02:41:45.461Z,0
2016-11-03T02:42:45.177Z,0
2016-11-03T02:43:45.188Z,0
2016-11-03T02:44:45.207Z,0
2016-11-03T02:45:45.229Z,0
2016-11-03T02:46:45.617Z,0
2016-11-03T02:47:45.226Z,0
2016-11-03T02:48:45.257Z,0
2016-11-03T02:49:44.968Z,0
2016-11-03T02:50:45.598Z,0
2016-11-03T02:51:45.305Z,0
2016-11-03T02:52:45.627Z,0
2016-11-03T02:53:45.348Z,0
2016-11-03T02:54:45.649Z,0
2016-11-03T02:55:45.369Z,0
2016-11-03T02:56:45.695Z,0
2016-11-03T02:57:45.377Z,0
2016-11-03T02:58:45.711Z,0
2016-11-03T02:59:45.439Z,0
2016-11-03T03:00:45.439Z,0
2016-11-03T03:01:45.446Z,0
2016-11-03T03:02:45.454Z,0
2016-11-03T03:03:45.182Z,0
2016-11-03T03:04:45.841Z,0
2016-11-03T03:05:45.875Z,0
2016-11-03T03:06:45.537Z,0
2016-11-03T03:07:45.695Z,0
2016-11-03T03:08:44.929Z,0
2016-11-03T03:09:45.722Z,0
2016-11-03T03:10:45.886Z,0
2016-11-03T03:11:45.902Z,0
2016-11-03T03:12:45.609Z,0
2016-11-03T03:13:45.950Z,0
2016-11-03T03:14:45.972Z,0
2016-11-03T03:15:45.360Z,0
2016-11-03T03:16:45.999Z,0
2016-11-03T03:17:46.048Z,0
2016-11-03T03:18:46.067Z,0
2016-11-03T03:19:46.070Z,0
2016-11-03T03:20:46.043Z,0
2016-11-03T03:21:45.760Z,0
2016-11-03T03:22:45.779Z,0
2016-11-03T03:23:46.083Z,0
2016-11-03T03:24:45.503Z,0
2016-11-03T03:25:45.816Z,0
2016-11-03T03:26:45.940Z,0
2016-11-03T03:27:45.529Z,0
2016-11-03T03:28:45.868Z,0
2016-11-03T03:29:45.920Z,0
2016-11-03T03:30:46.193Z,0
2016-11-03T03:31:46.325Z,0
2016-11-03T03:32:45.956Z,0
2016-11-03T03:33:45.735Z,0
2016-11-03T03:34:45.996Z,0
2016-11-03T03:35:45.990Z,0
2016-11-03T03:36:45.993Z,0
2016-11-03T03:37:46.016Z,0
2016-11-03T03:38:46.036Z,0
2016-11-03T03:39:45.829Z,0
2016-11-03T03:40:46.027Z,0
2016-11-03T03:41:46.120Z,0
2016-11-03T03:42:46.120Z,0
2016-11-03T03:43:46.135Z,0
2016-11-03T03:44:46.569Z,0
2016-11-03T03:45:46.429Z,0
2016-11-03T03:46:46.130Z,0
2016-11-03T03:47:45.824Z,0
2016-11-03T03:48:46.529Z,0
2016-11-03T03:49:46.598Z,0
2016-11-03T03:50:46.195Z,0
2016-11-03T03:51:45.905Z,0
2016-11-03T03:52:46.018Z,0
2016-11-03T03:53:46.570Z,0
2016-11-03T03:54:46.237Z,0
2016-11-03T03:55:46.250Z,0
2016-11-03T03:56:46.019Z,0
2016-11-03T03:57:46.003Z,0
2016-11-03T03:58:46.320Z,0
2016-11-03T03:59:46.011Z,0
2016-11-03T04:00:46.389Z,0
2016-11-03T04:01:46.109Z,0
2016-11-03T04:02:46.413Z,0
2016-11-03T04:03:46.389Z,0
2016-11-03T04:04:46.197Z,0
2016-11-03T04:05:46.149Z,0
2016-11-03T04:06:47.058Z,0
2016-11-03T04:07:46.141Z,0
2016-11-03T04:08:46.778Z,0
2016-11-03T04:09:46.789Z,0
2016-11-03T04:10:46.496Z,0
2016-11-03T04:11:46.509Z,0
2016-11-03T04:12:46.878Z,0
2016-11-03T04:13:46.616Z,0
2016-11-03T04:14:46.937Z,0
2016-11-03T04:15:46.640Z,0
2016-11-03T04:16:46.928Z,0
2016-11-03T04:17:46.904Z,0
2016-11-03T04:18:46.611Z,0
2016-11-03T04:19:46.632Z,0
2016-11-03T04:20:46.665Z,0
2016-11-03T04:21:46.414Z,0
2016-11-03T04:22:46.675Z,0
2016-11-03T04:23:46.995Z,0
2016-11-03T04:24:46.698Z,0
2016-11-03T04:25:46.703Z,0
2016-11-03T04:26:46.725Z,0
2016-11-03T04:27:46.442Z,0
2016-11-03T04:28:46.456Z,0
2016-11-03T04:29:47.091Z,0
2016-11-03T04:30:47.107Z,0
2016-11-03T04:31:46.861Z,0
2016-11-03T04:32:46.830Z,0
2016-11-03T04:33:47.157Z,0
2016-11-03T04:34:47.159Z,0
2016-11-03T04:35:46.867Z,0
2016-11-03T04:36:46.890Z,0
2016-11-03T04:37:47.221Z,0
2016-11-03T04:38:46.703Z,0
2016-11-03T04:39:46.622Z,0
2016-11-03T04:40:47.261Z,0
2016-11-03T04:41:46.704Z,0
2016-11-03T04:42:47.299Z,0
2016-11-03T04:43:47.411Z,0
2016-11-03T04:44:47.019Z,0
2016-11-03T04:45:47.023Z,0
2016-11-03T04:46:47.043Z,0
2016-11-03T04:47:46.749Z,0
2016-11-03T04:48:47.450Z,0
2016-11-03T04:49:47.100Z,0
2016-11-03T04:50:47.410Z,0
2016-11-03T04:51:47.488Z,0
2016-11-03T04:52:47.126Z,0
2016-11-03T04:53:47.150Z,0
2016-11-03T04:54:47.483Z,0
2016-11-03T04:55:47.499Z,0
2016-11-03T04:56:47.206Z,0
2016-11-03T04:57:47.515Z,0
2016-11-03T04:58:47.571Z,0
2016-11-03T04:59:47.557Z,0
2016-11-03T05:00:47.569Z,0
2016-11-03T05:01:47.273Z,0
2016-11-03T05:02:47.614Z,0
2016-11-03T05:03:47.310Z,0
2016-11-03T05:04:47.640Z,0
2016-11-03T05:05:47.349Z,0
2016-11-03T05:06:47.460Z,0
2016-11-03T05:07:46.766Z,0
2016-11-03T05:08:47.088Z,0
2016-11-03T05:09:47.713Z,0
2016-11-03T05:10:47.724Z,0
2016-11-03T05:11:47.421Z,0
2016-11-03T05:12:47.118Z,0
2016-11-03T05:13:47.476Z,0
2016-11-03T05:14:47.802Z,0
2016-11-03T05:15:46.891Z,0
2016-11-03T05:16:47.291Z,0
2016-11-03T05:17:47.525Z,0
2016-11-03T05:18:47.859Z,0
2016-11-03T05:19:47.662Z,0
2016-11-03T05:20:47.870Z,0
2016-11-03T05:21:47.600Z,0
2016-11-03T05:22:47.909Z,0
2016-11-03T05:23:48.030Z,40
2016-11-03T05:24:47.949Z,40
2016-11-03T05:25:48.019Z,12
2016-11-03T05:26:47.347Z,0
2016-11-03T05:27:47.676Z,0
2016-11-03T05:28:48.005Z,0
2016-11-03T05:29:48.008Z,0
2016-11-03T05:30:48.070Z,0
2016-11-03T05:31:48.061Z,0
2016-11-03T05:32:48.067Z,0
2016-11-03T05:33:47.877Z,0
2016-11-03T05:34:48.086Z,0
2016-11-03T05:35:48.009Z,0
2016-11-03T05:36:47.750Z,0
2016-11-03T05:37:47.814Z,0
2016-11-03T05:38:48.090Z,0
2016-11-03T05:39:48.421Z,0
2016-11-03T05:40:48.413Z,0
2016-11-03T05:41:48.408Z,0
2016-11-03T05:42:47.670Z,0
2016-11-03T05:43:48.118Z,0
2016-11-03T05:44:48.309Z,0
2016-11-03T05:45:47.429Z,0
2016-11-03T05:46:48.557Z,0
2016-11-03T05:47:48.471Z,0
2016-11-03T05:48:48.541Z,0
2016-11-03T05:49:48.422Z,0
2016-11-03T05:50:48.170Z,0
2016-11-03T05:51:48.196Z,0
2016-11-03T05:52:47.867Z,4
2016-11-03T05:53:48.123Z,44
2016-11-03T05:54:48.150Z,0
2016-11-03T05:55:47.810Z,4
2016-11-03T05:56:48.530Z,0
2016-11-03T05:57:48.190Z,4
2016-11-03T05:58:48.449Z,4
2016-11-03T05:59:48.162Z,8
2016-11-03T06:00:48.229Z,8
2016-11-03T06:01:48.538Z,8
2016-11-03T06:02:48.267Z,8
2016-11-03T06:03:48.552Z,8
2016-11-03T06:04:48.267Z,12
2016-11-03T06:05:48.414Z,12
2016-11-03T06:06:48.631Z,16
2016-11-03T06:07:48.658Z,20
2016-11-03T06:08:48.397Z,24
2016-11-03T06:09:48.699Z,24
2016-11-03T06:10:48.528Z,28
2016-11-03T06:11:48.357Z,32
2016-11-03T06:12:48.410Z,36
2016-11-03T06:13:48.719Z,44
2016-11-03T06:14:48.426Z,44
2016-11-03T06:15:48.448Z,48
2016-11-03T06:16:48.140Z,52
2016-11-03T06:17:48.489Z,56
2016-11-03T06:18:48.466Z,56
2016-11-03T06:19:48.519Z,64
2016-11-03T06:20:48.900Z,72
2016-11-03T06:21:48.848Z,80
2016-11-03T06:22:48.564Z,92
2016-11-03T06:23:48.648Z,100
2016-11-03T06:24:48.900Z,112
2016-11-03T06:25:49.003Z,132
2016-11-03T06:26:48.086Z,148
2016-11-03T06:27:48.055Z,168
2016-11-03T06:28:48.463Z,184
2016-11-03T06:29:48.962Z,196
2016-11-03T06:30:48.370Z,216
2016-11-03T06:31:48.671Z,232
2016-11-03T06:32:49.149Z,248
2016-11-03T06:33:48.716Z,260
2016-11-03T06:34:48.843Z,272
2016-11-03T06:35:48.747Z,280
2016-11-03T06:36:48.773Z,296
2016-11-03T06:37:49.098Z,324
2016-11-03T06:38:48.893Z,352
2016-11-03T06:39:49.149Z,388
2016-11-03T06:40:49.146Z,424
2016-11-03T06:41:48.850Z,460
2016-11-03T06:42:48.860Z,504
2016-11-03T06:43:48.887Z,552
2016-11-03T06:44:48.559Z,604
2016-11-03T06:45:49.213Z,652
2016-11-03T06:46:49.363Z,688
2016-11-03T06:47:48.930Z,724
2016-11-03T06:48:49.279Z,752
2016-11-03T06:49:49.368Z,776
2016-11-03T06:50:48.976Z,804
2016-11-03T06:51:49.058Z,836
2016-11-03T06:52:48.699Z,880
2016-11-03T06:53:49.488Z,912
2016-11-03T06:54:49.064Z,940
2016-11-03T06:55:49.373Z,956
2016-11-03T06:56:49.397Z,968
2016-11-03T06:57:49.128Z,992
2016-11-03T06:58:49.411Z,1024
2016-11-03T06:59:49.147Z,1056
2016-11-03T07:00:49.133Z,1080
2016-11-03T07:01:49.479Z,1100
2016-11-03T07:02:49.181Z,1116
2016-11-03T07:03:48.923Z,1144
2016-11-03T07:04:49.529Z,1200
2016-11-03T07:05:49.234Z,1284
2016-11-03T07:06:48.928Z,1396
2016-11-03T07:07:49.269Z,1544
2016-11-03T07:08:49.600Z,1688
2016-11-03T07:09:49.299Z,1764
2016-11-03T07:10:49.325Z,1848
2016-11-03T07:11:49.317Z,1960
2016-11-03T07:12:49.044Z,2084
2016-11-03T07:13:49.679Z,2228
2016-11-03T07:14:49.367Z,2400
2016-11-03T07:15:49.393Z,2636
2016-11-03T07:16:49.728Z,2948
2016-11-03T07:17:49.859Z,3280
2016-11-03T07:18:49.765Z,3588
2016-11-03T07:19:49.153Z,3764
2016-11-03T07:20:49.788Z,3776
2016-11-03T07:21:49.473Z,3636
2016-11-03T07:22:49.508Z,3156
2016-11-03T07:23:49.510Z,2512
2016-11-03T07:24:49.562Z,2040
2016-11-03T07:25:49.538Z,1820
2016-11-03T07:26:49.867Z,1720
2016-11-03T07:27:49.571Z,1652
2016-11-03T07:28:49.616Z,1576
2016-11-03T07:29:49.937Z,1492
2016-11-03T07:30:49.637Z,1428
2016-11-03T07:31:50.055Z,1380
2016-11-03T07:32:49.355Z,1368
2016-11-03T07:33:50.105Z,1380
2016-11-03T07:34:49.707Z,1420
2016-11-03T07:35:49.724Z,1472
2016-11-03T07:36:49.561Z,1532
2016-11-03T07:37:50.056Z,1612
2016-11-03T07:38:49.859Z,1724
2016-11-03T07:39:49.781Z,1788
2016-11-03T07:40:50.125Z,1848
2016-11-03T07:41:49.512Z,1948
2016-11-03T07:42:49.814Z,2092
2016-11-03T07:43:50.264Z,2196
2016-11-03T07:44:49.655Z,2268
2016-11-03T07:45:49.875Z,2304
2016-11-03T07:46:49.895Z,2352
2016-11-03T07:47:49.910Z,2400
2016-11-03T07:48:49.921Z,2420
2016-11-03T07:49:50.240Z,2456
2016-11-03T07:50:49.971Z,2504
2016-11-03T07:51:50.303Z,2580
2016-11-03T07:52:50.100Z,2684
2016-11-03T07:53:50.109Z,2820
2016-11-03T07:54:50.072Z,2956
2016-11-03T07:55:49.732Z,2972
2016-11-03T07:56:50.379Z,2972
2016-11-03T07:57:50.398Z,3032
2016-11-03T07:58:50.509Z,3092
2016-11-03T07:59:50.428Z,3120
2016-11-03T08:00:50.559Z,3260
2016-11-03T08:01:50.543Z,3576
2016-11-03T08:02:50.157Z,3992
2016-11-03T08:03:50.541Z,4316
2016-11-03T08:04:50.505Z,4504
2016-11-03T08:05:50.246Z,4484
2016-11-03T08:06:50.539Z,4416
2016-11-03T08:07:50.555Z,4432
2016-11-03T08:08:50.562Z,4512
2016-11-03T08:09:50.588Z,4600
2016-11-03T08:10:50.673Z,4620
2016-11-03T08:11:50.725Z,4652
2016-11-03T08:12:50.683Z,4556
2016-11-03T08:13:50.181Z,4400
2016-11-03T08:14:50.398Z,4560
2016-11-03T08:15:50.713Z,4680
2016-11-03T08:16:50.705Z,4840
2016-11-03T08:17:50.713Z,4944
2016-11-03T08:18:50.745Z,5152
2016-11-03T08:19:50.532Z,5236
2016-11-03T08:20:50.465Z,5244
2016-11-03T08:21:50.780Z,5224
2016-11-03T08:22:50.487Z,5232
2016-11-03T08:23:50.623Z,5180
2016-11-03T08:24:50.655Z,5056
2016-11-03T08:25:50.842Z,4924
2016-11-03T08:26:50.586Z,4776
2016-11-03T08:27:50.895Z,4620
2016-11-03T08:28:50.910Z,4592
2016-11-03T08:29:50.952Z,4532
2016-11-03T08:30:50.935Z,4384
2016-11-03T08:31:50.640Z,4180
2016-11-03T08:32:50.673Z,4008
2016-11-03T08:33:50.719Z,3868
2016-11-03T08:34:50.369Z,3760
2016-11-03T08:35:50.699Z,3656
2016-11-03T08:36:50.728Z,3544
2016-11-03T08:37:50.751Z,3564
2016-11-03T08:38:50.779Z,3652
2016-11-03T08:39:50.838Z,3676
2016-11-03T08:40:51.113Z,3664
2016-11-03T08:41:51.115Z,3660
2016-11-03T08:42:51.250Z,3700
2016-11-03T08:43:51.206Z,3756
2016-11-03T08:44:50.853Z,3808
2016-11-03T08:45:50.904Z,3876
2016-11-03T08:46:50.708Z,3936
2016-11-03T08:47:51.235Z,4000
2016-11-03T08:48:50.620Z,4052
2016-11-03T08:49:50.629Z,4084
2016-11-03T08:50:50.968Z,4144
2016-11-03T08:51:51.370Z,4180
2016-11-03T08:52:51.451Z,4244
2016-11-03T08:53:51.021Z,4316
2016-11-03T08:54:51.051Z,4384
2016-11-03T08:55:51.083Z,4460
2016-11-03T08:56:51.381Z,4520
2016-11-03T08:57:51.408Z,4580
2016-11-03T08:58:51.094Z,4628
2016-11-03T08:59:51.422Z,4676
2016-11-03T09:00:51.139Z,4700
2016-11-03T09:01:51.151Z,4708
2016-11-03T09:02:51.167Z,4692
2016-11-03T09:03:51.200Z,4652
2016-11-03T09:04:51.208Z,4588
2016-11-03T09:05:50.902Z,4484
2016-11-03T09:06:51.224Z,4500
2016-11-03T09:07:51.576Z,4448
2016-11-03T09:08:51.656Z,4428
2016-11-03T09:09:51.583Z,4432
2016-11-03T09:10:51.609Z,4452
2016-11-03T09:11:51.316Z,4532
2016-11-03T09:12:51.641Z,4600
2016-11-03T09:13:51.700Z,4688
2016-11-03T09:14:51.490Z,4876
2016-11-03T09:15:51.389Z,4988
2016-11-03T09:16:51.707Z,5132
2016-11-03T09:17:51.709Z,5200
2016-11-03T09:18:51.911Z,5176
2016-11-03T09:19:51.763Z,5152
2016-11-03T09:20:51.818Z,5064
2016-11-03T09:21:51.500Z,4944
2016-11-03T09:22:51.490Z,4812
2016-11-03T09:23:51.507Z,4724
2016-11-03T09:24:51.868Z,4820
2016-11-03T09:25:51.868Z,4808
2016-11-03T09:26:51.578Z,4872
2016-11-03T09:27:51.579Z,4980
2016-11-03T09:28:51.918Z,5004
2016-11-03T09:29:51.621Z,4936
2016-11-03T09:30:51.645Z,4960
2016-11-03T09:31:51.651Z,4936
2016-11-03T09:32:51.669Z,4892
2016-11-03T09:33:52.107Z,4960
2016-11-03T09:34:52.031Z,5008
2016-11-03T09:35:52.136Z,5008
2016-11-03T09:36:52.097Z,5056
2016-11-03T09:37:51.804Z,5128
2016-11-03T09:38:52.100Z,5172
2016-11-03T09:39:51.891Z,5300
2016-11-03T09:40:52.116Z,5352
2016-11-03T09:41:52.147Z,5520
2016-11-03T09:42:52.157Z,5528
2016-11-03T09:43:51.989Z,5632
2016-11-03T09:44:52.449Z,5796
2016-11-03T09:45:52.523Z,5928
2016-11-03T09:46:52.482Z,5924
2016-11-03T09:47:52.008Z,6624
2016-11-03T09:48:52.510Z,6776
2016-11-03T09:49:51.963Z,6236
2016-11-03T09:50:52.558Z,6244
2016-11-03T09:51:52.523Z,6384
2016-11-03T09:52:52.517Z,6724
2016-11-03T09:53:52.038Z,6712
2016-11-03T09:54:52.530Z,7052
2016-11-03T09:55:52.075Z,7000
2016-11-03T09:56:52.548Z,7700
2016-11-03T09:57:52.529Z,7200
2016-11-03T09:58:52.540Z,7560
2016-11-03T09:59:51.829Z,7820
2016-11-03T10:00:52.238Z,7796
2016-11-03T10:01:52.537Z,8936
2016-11-03T10:02:52.313Z,6824
2016-11-03T10:03:52.209Z,7176
2016-11-03T10:04:52.568Z,8280
2016-11-03T10:05:52.590Z,9108
2016-11-03T10:06:52.632Z,7760
2016-11-03T10:07:52.291Z,7380
2016-11-03T10:08:52.595Z,7076
2016-11-03T10:09:52.623Z,6672
2016-11-03T10:10:52.351Z,6456
2016-11-03T10:11:52.338Z,7096
2016-11-03T10:12:52.630Z,5936
2016-11-03T10:13:52.796Z,6056
2016-11-03T10:14:53.220Z,5260
2016-11-03T10:15:52.815Z,4964
2016-11-03T10:16:52.667Z,4508
2016-11-03T10:17:52.689Z,4264
2016-11-03T10:18:52.692Z,4244
2016-11-03T10:19:53.180Z,4472
2016-11-03T10:20:52.665Z,4516
2016-11-03T10:21:52.843Z,4548
2016-11-03T10:22:52.864Z,4368
2016-11-03T10:23:53.019Z,4156
2016-11-03T10:24:52.729Z,4228
2016-11-03T10:25:52.931Z,4472
2016-11-03T10:26:52.688Z,5184
2016-11-03T10:27:52.806Z,4964
2016-11-03T10:28:52.730Z,5040
2016-11-03T10:29:52.987Z,5308
2016-11-03T10:30:53.149Z,5080
2016-11-03T10:31:53.067Z,4884
2016-11-03T10:32:53.050Z,4964
2016-11-03T10:33:53.081Z,5832
2016-11-03T10:34:53.053Z,4972
2016-11-03T10:35:52.791Z,4616
2016-11-03T10:36:53.141Z,4300
2016-11-03T10:37:53.137Z,4132
2016-11-03T10:38:53.171Z,4284
2016-11-03T10:39:53.182Z,3976
2016-11-03T10:40:53.267Z,4064
2016-11-03T10:41:53.230Z,3972
2016-11-03T10:42:53.288Z,4052
2016-11-03T10:43:53.251Z,4184
2016-11-03T10:44:52.966Z,4368
2016-11-03T10:45:53.299Z,3856
2016-11-03T10:46:53.296Z,4120
2016-11-03T10:47:53.013Z,4196
2016-11-03T10:48:53.047Z,4092
2016-11-03T10:49:53.384Z,4056
2016-11-03T10:50:53.376Z,4208
2016-11-03T10:51:53.409Z,4272
2016-11-03T10:52:53.427Z,4316
2016-11-03T10:53:52.899Z,4236
2016-11-03T10:54:53.535Z,4076
2016-11-03T10:55:53.462Z,4088
2016-11-03T10:56:53.184Z,3996
2016-11-03T10:57:53.516Z,3884
2016-11-03T10:58:53.210Z,4200
2016-11-03T10:59:53.551Z,4208
2016-11-03T11:00:53.410Z,4220
2016-11-03T11:01:53.577Z,4140
2016-11-03T11:02:53.299Z,4392
2016-11-03T11:03:53.631Z,4944
2016-11-03T11:04:53.323Z,4144
2016-11-03T11:05:53.367Z,3688
2016-11-03T11:06:53.411Z,3644
2016-11-03T11:07:53.397Z,3560
2016-11-03T11:08:53.721Z,3432
2016-11-03T11:09:53.409Z,3192
2016-11-03T11:10:53.768Z,3072
2016-11-03T11:11:53.768Z,3036
2016-11-03T11:12:53.479Z,3760
2016-11-03T11:13:53.505Z,4196
2016-11-03T11:14:53.524Z,3952
2016-11-03T11:15:53.970Z,3616
2016-11-03T11:16:53.540Z,3716
2016-11-03T11:17:52.985Z,3632
2016-11-03T11:18:53.959Z,3612
2016-11-03T11:19:53.604Z,4068
2016-11-03T11:20:53.618Z,4192
2016-11-03T11:21:53.950Z,4560
2016-11-03T11:22:54.012Z,4592
2016-11-03T11:23:53.388Z,5172
2016-11-03T11:24:53.381Z,5608
2016-11-03T11:25:53.765Z,4940
2016-11-03T11:26:53.839Z,4924
2016-11-03T11:27:54.077Z,4264
2016-11-03T11:28:53.891Z,4680
2016-11-03T11:29:54.100Z,4444
2016-11-03T11:30:53.816Z,4452
2016-11-03T11:31:53.813Z,4728
2016-11-03T11:32:53.851Z,4432
2016-11-03T11:33:53.870Z,4160
2016-11-03T11:34:54.180Z,4144
2016-11-03T11:35:53.901Z,3960
2016-11-03T11:36:53.920Z,4132
2016-11-03T11:37:54.260Z,4060
2016-11-03T11:38:53.968Z,4020
2016-11-03T11:39:54.270Z,3680
2016-11-03T11:40:53.728Z,3696
2016-11-03T11:41:54.349Z,3952
2016-11-03T11:42:53.718Z,4044
2016-11-03T11:43:54.399Z,3944
2016-11-03T11:44:54.081Z,3772
2016-11-03T11:45:54.397Z,4016
2016-11-03T11:46:54.433Z,3864
2016-11-03T11:47:54.128Z,3732
2016-11-03T11:48:53.838Z,3968
2016-11-03T11:49:54.457Z,4880
2016-11-03T11:50:54.253Z,5276
2016-11-03T11:51:54.497Z,5872
2016-11-03T11:52:54.227Z,6072
2016-11-03T11:53:54.541Z,6276
2016-11-03T11:54:53.977Z,5592
2016-11-03T11:55:53.963Z,5192
2016-11-03T11:56:54.650Z,5976
2016-11-03T11:57:54.341Z,5308
2016-11-03T11:58:54.329Z,5316
2016-11-03T11:59:54.349Z,4964
2016-11-03T12:00:54.763Z,4860
2016-11-03T12:01:54.704Z,4512
2016-11-03T12:02:54.488Z,4044
2016-11-03T12:03:54.419Z,3892
2016-11-03T12:04:54.747Z,3864
2016-11-03T12:05:54.750Z,4376
2016-11-03T12:06:54.779Z,5588
2016-11-03T12:07:54.838Z,6108
2016-11-03T12:08:54.650Z,6392
2016-11-03T12:09:54.947Z,6096
2016-11-03T12:10:54.852Z,4856
2016-11-03T12:11:54.936Z,3944
2016-11-03T12:12:54.921Z,4320
2016-11-03T12:13:54.901Z,4724
2016-11-03T12:14:54.629Z,4468
2016-11-03T12:15:54.959Z,4396
2016-11-03T12:16:54.989Z,4636
2016-11-03T12:17:54.987Z,5400
2016-11-03T12:18:54.997Z,5312
2016-11-03T12:19:55.033Z,5420
2016-11-03T12:20:54.425Z,6176
2016-11-03T12:21:55.071Z,6920
2016-11-03T12:22:54.473Z,6456
2016-11-03T12:23:54.833Z,6052
2016-11-03T12:24:54.859Z,5480
2016-11-03T12:25:54.838Z,5932
2016-11-03T12:26:54.555Z,5632
2016-11-03T12:27:54.870Z,5620
2016-11-03T12:28:54.889Z,5412
2016-11-03T12:29:55.214Z,5008
2016-11-03T12:30:54.610Z,4392
2016-11-03T12:31:55.260Z,4536
2016-11-03T12:32:54.968Z,4004
2016-11-03T12:33:55.111Z,3872
2016-11-03T12:34:55.312Z,3732
2016-11-03T12:35:55.026Z,3756
2016-11-03T12:36:54.736Z,3736
2016-11-03T12:37:55.089Z,4524
2016-11-03T12:38:54.767Z,3824
2016-11-03T12:39:55.146Z,3612
2016-11-03T12:40:55.122Z,4244
2016-11-03T12:41:54.830Z,4208
2016-11-03T12:42:55.151Z,3868
2016-11-03T12:43:55.491Z,4852
2016-11-03T12:44:55.183Z,5312
2016-11-03T12:45:55.510Z,5796
2016-11-03T12:46:55.316Z,5276
2016-11-03T12:47:55.260Z,4816
2016-11-03T12:48:55.255Z,4444
2016-11-03T12:49:55.288Z,4128
2016-11-03T12:50:55.632Z,4048
2016-11-03T12:51:55.661Z,4256
2016-11-03T12:52:55.641Z,4936
2016-11-03T12:53:55.677Z,4680
2016-11-03T12:54:55.742Z,4432
2016-11-03T12:55:55.691Z,4120
2016-11-03T12:56:55.737Z,4084
2016-11-03T12:57:56.219Z,4280
2016-11-03T12:58:55.463Z,4116
2016-11-03T12:59:55.482Z,4840
2016-11-03T13:00:55.512Z,5708
2016-11-03T13:01:55.813Z,5904
2016-11-03T13:02:55.754Z,5164
2016-11-03T13:03:54.935Z,4712
2016-11-03T13:04:56.073Z,4736
2016-11-03T13:05:55.325Z,4476
2016-11-03T13:06:56.115Z,3984
2016-11-03T13:07:55.622Z,3988
2016-11-03T13:08:56.130Z,4188
2016-11-03T13:09:55.357Z,4288
2016-11-03T13:10:56.303Z,4424
2016-11-03T13:11:56.198Z,4412
2016-11-03T13:12:55.774Z,4584
2016-11-03T13:13:55.847Z,4976
2016-11-03T13:14:55.803Z,4808
2016-11-03T13:15:55.485Z,5276
2016-11-03T13:16:56.317Z,5260
2016-11-03T13:17:55.889Z,4960
2016-11-03T13:18:56.087Z,4592
2016-11-03T13:19:56.216Z,4628
2016-11-03T13:20:56.337Z,5696
2016-11-03T13:21:55.576Z,6400
2016-11-03T13:22:55.601Z,6360
2016-11-03T13:23:55.972Z,5800
2016-11-03T13:24:55.960Z,5516
2016-11-03T13:25:56.179Z,4716
2016-11-03T13:26:56.015Z,4352
2016-11-03T13:27:56.402Z,3936
2016-11-03T13:28:56.349Z,3964
2016-11-03T13:29:56.131Z,4104
2016-11-03T13:30:56.365Z,3844
2016-11-03T13:31:56.462Z,4356
2016-11-03T13:32:56.418Z,3968
2016-11-03T13:33:56.443Z,3896
2016-11-03T13:34:56.460Z,3656
2016-11-03T13:35:56.480Z,3688
2016-11-03T13:36:56.513Z,3544
2016-11-03T13:37:56.478Z,3384
2016-11-03T13:38:56.318Z,3400
2016-11-03T13:39:56.304Z,3356
2016-11-03T13:40:56.316Z,3228
2016-11-03T13:41:56.451Z,3504
2016-11-03T13:42:56.294Z,3652
2016-11-03T13:43:56.109Z,4272
2016-11-03T13:44:55.715Z,3680
2016-11-03T13:45:56.411Z,3368
2016-11-03T13:46:56.691Z,3240
2016-11-03T13:47:56.711Z,2920
2016-11-03T13:48:56.444Z,2704
2016-11-03T13:49:56.421Z,2460
2016-11-03T13:50:56.752Z,2356
2016-11-03T13:51:56.205Z,2424
2016-11-03T13:52:56.568Z,2452
2016-11-03T13:53:56.510Z,2636
2016-11-03T13:54:56.933Z,2524
2016-11-03T13:55:56.551Z,2324
2016-11-03T13:56:56.576Z,2084
2016-11-03T13:57:56.617Z,2020